Time;durP1;ratioP1;P1;durP2;ratioP2;P2;SDS_P1;SDS_P2;PMS_P1;PMS_P2;Temp;Humidity;BMP_temperature;BMP_pressure;BME280_temperature;BME280_humidity;BME280_pressure;Samples;Min_cycle;Max_cycle;Signal;HPM_P1;HPM_P2
2022/09/19 00:07:18;;;;;;;7.50;3.40;;;;;;;11.10;100.00;99168.44;658465;1277;139354;-88
2022/09/19 00:22:21;;;;;;;7.10;3.50;;;;;;;11.06;100.00;99160.64;658206;1277;139029;-91
2022/09/19 00:37:25;;;;;;;10.00;4.10;;;;;;;11.04;100.00;99161.71;657838;1277;139075;-88
2022/09/19 00:52:52;;;;;;;13.40;5.20;;;;;;;11.10;100.00;99159.02;657386;1277;139436;-88
2022/09/19 01:08:28;;;;;;;9.20;4.60;;;;;;;11.16;100.00;99158.02;657252;1277;139415;-87
2022/09/19 01:24:04;;;;;;;6.20;3.60;;;;;;;11.19;100.00;99160.64;656481;1277;139041;-89
2022/09/19 01:39:10;;;;;;;7.40;3.50;;;;;;;11.18;100.00;99157.56;657038;1277;139325;-88
2022/09/19 01:54:33;;;;;;;7.80;3.90;;;;;;;11.17;100.00;99156.77;656441;1278;138994;-88
2022/09/19 02:10:00;;;;;;;9.60;4.20;;;;;;;11.15;100.00;99163.32;656253;1277;139148;-88
2022/09/19 02:25:15;;;;;;;10.80;3.90;;;;;;;11.11;100.00;99160.79;656345;1277;141560;-90
2022/09/19 02:40:28;;;;;;;8.00;4.20;;;;;;;11.07;100.00;99163.48;656344;1277;139748;-91
2022/09/19 02:55:39;;;;;;;7.00;3.80;;;;;;;11.08;100.00;99169.84;656382;1278;139036;-90
2022/09/19 03:10:48;;;;;;;8.30;4.50;;;;;;;11.03;100.00;99169.86;656046;1280;139537;-90
2022/09/19 03:26:12;;;;;;;11.60;6.20;;;;;;;11.00;100.00;99173.19;656465;1277;139063;-90
2022/09/19 03:41:18;;;;;;;9.00;4.70;;;;;;;11.05;100.00;99171.27;658681;1277;139717;-90
2022/09/19 03:56:22;;;;;;;6.80;5.60;;;;;;;11.03;100.00;99175.85;659296;1277;139390;-90
2022/09/19 04:11:26;;;;;;;11.30;5.50;;;;;;;11.05;100.00;99179.62;658938;1277;139305;-89
2022/09/19 04:26:29;;;;;;;12.00;5.50;;;;;;;11.02;100.00;99182.95;659217;1277;139375;-88
2022/09/19 04:41:34;;;;;;;9.40;5.70;;;;;;;10.95;100.00;99190.34;659030;1277;139621;-88
2022/09/19 04:56:38;;;;;;;19.50;12.30;;;;;;;10.95;100.00;99201.58;657341;1277;139847;-88
2022/09/19 05:11:43;;;;;;;7.70;4.80;;;;;;;11.01;100.00;99214.00;658626;1277;139600;-87
2022/09/19 05:26:47;;;;;;;11.10;4.80;;;;;;;11.09;100.00;99222.08;658296;1277;139483;-87
2022/09/19 05:41:52;;;;;;;10.40;5.80;;;;;;;11.07;100.00;99229.09;658844;1277;139104;-87
2022/09/19 05:56:57;;;;;;;7.70;4.70;;;;;;;11.11;100.00;99240.98;658376;1277;139383;-90
2022/09/19 06:12:01;;;;;;;11.10;5.30;;;;;;;11.19;100.00;99256.03;658304;1277;139002;-86
2022/09/19 06:27:06;;;;;;;58.90;27.70;;;;;;;11.13;100.00;99272.21;663478;1277;139594;-88
2022/09/19 06:42:13;;;;;;;12.60;8.10;;;;;;;11.10;100.00;99283.19;664925;1277;139571;-88
2022/09/19 06:57:34;;;;;;;7.80;5.20;;;;;;;11.24;100.00;99296.64;661206;1277;139973;-89
2022/09/19 07:12:37;;;;;;;5.00;3.20;;;;;;;11.41;100.00;99311.27;662858;1277;139249;-88
2022/09/19 07:27:43;;;;;;;3.70;3.00;;;;;;;11.48;100.00;99331.48;661349;1277;139260;-88
2022/09/19 07:42:53;;;;;;;9.60;4.00;;;;;;;11.40;100.00;99346.88;660451;1279;139611;-89
2022/09/19 07:58:22;;;;;;;11.10;6.70;;;;;;;11.51;100.00;99354.14;658202;1279;140108;-88
2022/09/19 08:13:30;;;;;;;6.90;5.90;;;;;;;11.57;100.00;99372.30;660163;1277;139431;-84
2022/09/19 08:28:34;;;;;;;7.20;4.80;;;;;;;11.59;100.00;99386.05;665080;1276;139303;-89
2022/09/19 08:43:50;;;;;;;13.80;7.70;;;;;;;11.68;100.00;99399.58;659499;1277;139859;-89
2022/09/19 08:59:01;;;;;;;9.60;6.20;;;;;;;11.95;100.00;99410.66;659893;1277;139135;-89
2022/09/19 09:14:20;;;;;;;10.30;5.10;;;;;;;12.17;100.00;99416.64;659264;1277;139380;-87
2022/09/19 09:29:36;;;;;;;6.80;5.00;;;;;;;12.69;100.00;99419.10;658843;1277;140707;-90
2022/09/19 09:45:07;;;;;;;32.40;17.80;;;;;;;12.95;100.00;99414.68;658560;1277;139411;-87
2022/09/19 10:15:42;;;;;;;4.40;2.30;;;;;;;13.65;100.00;99455.23;659522;1276;139999;-92
2022/09/19 10:31:01;;;;;;;5.50;3.30;;;;;;;13.51;100.00;99464.23;662228;1277;140391;-90
2022/09/19 10:46:35;;;;;;;5.60;3.60;;;;;;;13.43;100.00;99476.16;659567;1277;139876;-91
2022/09/19 11:02:18;;;;;;;3.90;3.10;;;;;;;13.40;100.00;99484.11;659556;1277;138957;-87
2022/09/19 11:17:29;;;;;;;5.00;3.60;;;;;;;13.58;100.00;99497.27;659549;1277;140198;-87
2022/09/19 11:33:00;;;;;;;7.00;4.10;;;;;;;13.95;100.00;99497.04;661711;1277;138837;-86
2022/09/19 11:49:04;;;;;;;5.50;4.30;;;;;;;14.12;100.00;99511.08;656702;1278;1554448;-86
2022/09/19 12:04:45;;;;;;;7.10;5.40;;;;;;;14.16;100.00;99519.58;658857;1277;139914;-85
2022/09/19 12:19:57;;;;;;;7.70;5.60;;;;;;;14.26;100.00;99527.11;661385;1277;140093;-85
2022/09/19 12:35:11;;;;;;;9.30;6.50;;;;;;;15.08;100.00;99523.16;660259;1277;139664;-85
2022/09/19 12:50:33;;;;;;;7.60;4.70;;;;;;;15.75;100.00;99528.20;661486;1278;140472;-85
2022/09/19 13:05:52;;;;;;;6.80;4.60;;;;;;;15.57;100.00;99525.42;661684;1277;139920;-84
2022/09/19 13:36:24;;;;;;;16.50;10.70;;;;;;;16.33;100.00;99533.12;659903;1277;139470;-83
2022/09/19 13:51:37;;;;;;;6.30;4.30;;;;;;;16.86;99.52;99543.54;660607;1277;139554;-84
2022/09/19 14:06:41;;;;;;;12.60;6.40;;;;;;;17.42;96.14;99565.30;659151;1277;139485;-84
2022/09/19 14:22:37;;;;;;;6.90;4.80;;;;;;;16.24;99.77;99584.45;661458;1277;139487;-84
2022/09/19 14:37:56;;;;;;;9.40;4.80;;;;;;;17.96;94.96;99585.67;661076;1277;139407;-84
2022/09/19 14:53:07;;;;;;;6.90;4.60;;;;;;;15.82;98.79;99596.20;659388;1278;139594;-85
2022/09/19 15:08:30;;;;;;;7.50;5.30;;;;;;;14.20;100.00;99623.79;659445;1277;139390;-84
2022/09/19 15:23:37;;;;;;;74.90;38.20;;;;;;;13.80;100.00;99622.25;660040;1277;139384;-86
2022/09/19 15:38:44;;;;;;;27.40;15.00;;;;;;;13.98;100.00;99628.91;659384;1277;140048;-84
2022/09/19 15:53:49;;;;;;;23.00;13.30;;;;;;;14.20;100.00;99636.48;659625;1277;140014;-85
2022/09/19 16:09:01;;;;;;;15.80;9.40;;;;;;;15.01;100.00;99642.10;659733;1277;140165;-87
2022/09/19 16:24:15;;;;;;;13.80;7.10;;;;;;;14.58;100.00;99658.86;661156;1277;139317;-87
2022/09/19 16:39:22;;;;;;;14.90;11.10;;;;;;;13.96;100.00;99677.48;659754;1277;139341;-85
2022/09/19 16:54:31;;;;;;;28.60;20.30;;;;;;;13.56;100.00;99685.16;661016;1277;139783;-85
2022/09/19 17:09:34;;;;;;;22.40;11.90;;;;;;;13.19;100.00;99690.73;659746;1277;139295;-86
2022/09/19 17:24:39;;;;;;;14.80;9.10;;;;;;;12.91;100.00;99696.52;660342;1277;139426;-87
2022/09/19 17:39:43;;;;;;;12.40;8.10;;;;;;;12.54;100.00;99704.65;660526;1277;139869;-86
2022/09/19 17:54:49;;;;;;;15.10;9.40;;;;;;;12.30;100.00;99712.46;660612;1277;139134;-86
2022/09/19 18:09:54;;;;;;;14.80;7.30;;;;;;;12.04;100.00;99727.54;660263;1280;138991;-86
2022/09/19 18:25:04;;;;;;;11.20;7.50;;;;;;;11.84;100.00;99737.10;663010;1279;139383;-85
2022/09/19 18:40:12;;;;;;;16.10;9.60;;;;;;;11.71;100.00;99753.52;661670;1277;140161;-85
2022/09/19 18:55:16;;;;;;;19.50;11.30;;;;;;;11.56;100.00;99760.27;660314;1277;139893;-87
2022/09/19 19:10:19;;;;;;;17.10;10.70;;;;;;;11.44;100.00;99762.15;659622;1277;139369;-86
2022/09/19 19:25:26;;;;;;;13.90;8.70;;;;;;;11.35;100.00;99768.46;659488;1277;140332;-87
2022/09/19 19:40:31;;;;;;;27.40;15.20;;;;;;;11.24;100.00;99781.45;660126;1277;139805;-85
2022/09/19 19:55:35;;;;;;;28.80;12.60;;;;;;;11.15;100.00;99785.66;660268;1277;139550;-88
2022/09/19 20:10:41;;;;;;;23.10;11.50;;;;;;;11.15;100.00;99790.31;659989;1277;139409;-85
2022/09/19 20:25:47;;;;;;;17.80;10.90;;;;;;;11.17;100.00;99797.55;660234;1279;139480;-86
2022/09/19 20:40:56;;;;;;;19.30;10.60;;;;;;;11.33;100.00;99798.25;661212;1277;139272;-85
2022/09/19 20:56:09;;;;;;;18.50;9.00;;;;;;;11.46;100.00;99801.97;663143;1277;139391;-88
2022/09/19 21:11:14;;;;;;;16.60;9.30;;;;;;;11.59;100.00;99806.48;661312;1276;140082;-88
2022/09/19 21:26:23;;;;;;;16.40;8.40;;;;;;;11.54;100.00;99809.45;661554;1277;139096;-87
2022/09/19 21:41:29;;;;;;;12.60;7.00;;;;;;;11.58;100.00;99815.73;661635;1277;139814;-86
2022/09/19 21:56:33;;;;;;;11.00;6.10;;;;;;;11.63;100.00;99827.86;661432;1277;139838;-87
2022/09/19 22:11:36;;;;;;;9.30;6.10;;;;;;;11.67;100.00;99831.96;660872;1277;140355;-86
2022/09/19 22:26:41;;;;;;;20.50;13.00;;;;;;;11.67;100.00;99833.07;661359;1277;139280;-87
2022/09/19 22:41:45;;;;;;;8.90;5.30;;;;;;;11.53;100.00;99845.62;664364;1276;139622;-86
2022/09/19 22:56:48;;;;;;;9.60;5.00;;;;;;;11.34;100.00;99864.49;660795;1277;139517;-86
2022/09/19 23:11:51;;;;;;;7.60;5.30;;;;;;;11.21;100.00;99875.23;659987;1278;139362;-85
2022/09/19 23:26:56;;;;;;;6.30;3.70;;;;;;;11.11;100.00;99885.29;659128;1279;139487;-84
2022/09/19 23:41:59;;;;;;;8.20;4.40;;;;;;;11.11;100.00;99888.21;658311;1277;139704;-86
2022/09/19 23:57:02;;;;;;;7.00;4.00;;;;;;;11.08;100.00;99896.21;658423;1277;941164;-85
